createdAt,value
2022-09-05T00:03:17.646Z,17.30
2022-09-05T00:06:05.586Z,17.30
2022-09-05T00:09:10.002Z,17.30
2022-09-05T00:15:16.971Z,17.20
2022-09-05T00:19:12.058Z,17.20
2022-09-05T00:24:42.681Z,17.10
2022-09-05T00:27:23.026Z,17.10
2022-09-05T00:33:16.967Z,17.10
2022-09-05T00:36:18.155Z,17.10
2022-09-05T00:39:11.142Z,17.00
2022-09-05T00:41:39.072Z,17.00
2022-09-05T00:44:06.927Z,16.90
2022-09-05T00:46:37.302Z,16.90
2022-09-05T00:49:32.805Z,16.90
2022-09-05T00:52:37.934Z,16.90
2022-09-05T00:55:04.784Z,16.90
2022-09-05T00:57:50.386Z,16.80
2022-09-05T01:00:21.203Z,16.80
2022-09-05T01:03:21.378Z,16.80
2022-09-05T01:06:00.276Z,16.70
2022-09-05T01:09:23.422Z,16.70
2022-09-05T01:12:57.532Z,16.70
2022-09-05T01:15:33.240Z,16.70
2022-09-05T01:18:15.390Z,16.60
2022-09-05T01:21:00.091Z,16.60
2022-09-05T01:23:41.856Z,16.60
2022-09-05T01:26:19.235Z,16.50
2022-09-05T01:29:18.247Z,16.50
2022-09-05T01:32:16.798Z,16.50
2022-09-05T01:35:12.146Z,16.50
2022-09-05T01:38:06.717Z,16.50
2022-09-05T01:40:48.358Z,16.50
2022-09-05T01:44:11.992Z,16.40
2022-09-05T01:47:02.996Z,16.40
2022-09-05T01:50:10.348Z,16.30
2022-09-05T01:53:00.162Z,16.30
2022-09-05T01:56:09.736Z,16.30
2022-09-05T01:58:49.477Z,16.20
2022-09-05T02:01:25.260Z,16.20
2022-09-05T02:04:29.863Z,16.10
2022-09-05T02:07:29.762Z,16.10
2022-09-05T02:10:31.794Z,16.10
2022-09-05T02:13:39.136Z,16.10
2022-09-05T02:16:14.717Z,16.10
2022-09-05T02:19:01.383Z,16.10
2022-09-05T02:21:38.271Z,16.10
2022-09-05T02:24:28.766Z,16.10
2022-09-05T02:28:03.507Z,16.00
2022-09-05T02:30:24.742Z,16.00
2022-09-05T02:33:03.077Z,16.10
2022-09-05T02:35:35.897Z,16.00
2022-09-05T02:41:29.063Z,15.90
2022-09-05T02:45:08.931Z,15.90
2022-09-05T02:45:12.506Z,15.90
2022-09-05T02:47:51.041Z,15.90
2022-09-05T02:57:23.172Z,15.80
2022-09-05T02:57:38.987Z,15.80
2022-09-05T02:57:47.028Z,15.80
2022-09-05T02:59:39.827Z,15.80
2022-09-05T03:02:37.774Z,15.80
2022-09-05T03:05:14.509Z,15.80
2022-09-05T03:07:59.707Z,15.80
2022-09-05T03:10:39.681Z,15.80
2022-09-05T03:13:57.784Z,15.80
2022-09-05T03:16:49.227Z,15.80
2022-09-05T03:19:49.418Z,15.90
2022-09-05T03:22:43.507Z,15.90
2022-09-05T03:25:10.091Z,15.90
2022-09-05T03:28:04.765Z,15.90
2022-09-05T03:31:20.303Z,15.90
2022-09-05T03:34:10.613Z,15.90
2022-09-05T03:36:50.200Z,15.90
2022-09-05T03:39:46.127Z,15.90
2022-09-05T03:42:36.579Z,15.90
2022-09-05T03:45:47.807Z,16.00
2022-09-05T03:48:49.111Z,16.00
2022-09-05T03:57:07.029Z,16.00
2022-09-05T03:57:17.965Z,15.90
2022-09-05T03:57:47.743Z,15.90
2022-09-05T04:00:29.609Z,16.00
2022-09-05T04:08:10.980Z,16.00
2022-09-05T04:08:31.225Z,16.00
2022-09-05T04:09:04.381Z,16.00
2022-09-05T04:11:37.710Z,16.00
2022-09-05T04:14:21.646Z,16.00
2022-09-05T04:16:58.091Z,16.10
2022-09-05T04:19:37.139Z,16.10
2022-09-05T04:22:25.489Z,16.10
2022-09-05T04:25:29.515Z,16.20
2022-09-05T04:28:33.356Z,16.20
2022-09-05T04:31:30.726Z,16.20
2022-09-05T04:34:15.788Z,16.20
2022-09-05T04:36:44.511Z,16.20
2022-09-05T04:39:19.968Z,16.30
2022-09-05T04:42:17.238Z,16.40
2022-09-05T04:44:51.347Z,16.40
2022-09-05T04:47:29.606Z,16.30
2022-09-05T04:50:08.284Z,16.40
2022-09-05T04:52:41.125Z,16.30
2022-09-05T04:55:16.188Z,16.40
2022-09-05T04:57:51.637Z,16.40
2022-09-05T05:06:03.968Z,16.40
2022-09-05T05:06:13.105Z,16.50
2022-09-05T05:06:45.365Z,16.50
2022-09-05T05:09:28.894Z,16.60
2022-09-05T05:17:57.745Z,16.60
2022-09-05T05:18:09.766Z,16.60
2022-09-05T05:18:36.765Z,16.70
2022-09-05T05:21:17.598Z,16.70
2022-09-05T05:24:13.848Z,16.70
2022-09-05T05:26:59.417Z,16.70
2022-09-05T05:29:43.155Z,16.70
2022-09-05T05:32:37.515Z,16.80
2022-09-05T05:35:15.856Z,16.80
2022-09-05T05:37:53.473Z,16.90
2022-09-05T05:40:26.760Z,16.90
2022-09-05T05:43:15.001Z,16.90
2022-09-05T05:45:42.103Z,16.90
2022-09-05T05:48:39.615Z,16.90
2022-09-05T05:52:01.008Z,16.90
2022-09-05T05:54:41.228Z,16.90
2022-09-05T05:57:21.661Z,16.90
2022-09-05T06:00:27.413Z,16.90
2022-09-05T06:03:25.978Z,16.90
2022-09-05T06:06:32.538Z,17.10
2022-09-05T06:14:47.821Z,17.20
2022-09-05T06:14:58.126Z,17.20
2022-09-05T06:15:47.373Z,17.40
2022-09-05T06:18:29.020Z,17.50
2022-09-05T06:22:10.359Z,17.50
2022-09-05T06:23:42.647Z,17.70
2022-09-05T06:26:21.001Z,17.80
2022-09-05T06:29:14.299Z,17.90
2022-09-05T06:32:24.242Z,18.00
2022-09-05T06:35:00.000Z,18.20
2022-09-05T06:37:55.947Z,18.30
2022-09-05T06:40:39.467Z,18.50
2022-09-05T06:43:14.938Z,18.60
2022-09-05T06:46:01.847Z,18.90
2022-09-05T06:49:30.056Z,19.10
2022-09-05T06:52:02.640Z,19.30
2022-09-05T06:55:00.260Z,19.40
2022-09-05T06:57:54.891Z,19.60
2022-09-05T07:00:45.538Z,19.80
2022-09-05T07:03:52.087Z,19.90
2022-09-05T07:07:01.702Z,20.00
2022-09-05T07:09:54.202Z,20.00
2022-09-05T07:12:20.829Z,20.10
2022-09-05T07:15:08.957Z,20.20
2022-09-05T07:18:09.980Z,20.30
2022-09-05T07:21:15.885Z,20.30
2022-09-05T07:24:06.933Z,20.30
2022-09-05T07:26:53.468Z,20.40
2022-09-05T07:29:31.823Z,20.50
2022-09-05T07:32:01.015Z,20.50
2022-09-05T07:34:32.581Z,20.60
2022-09-05T07:37:17.749Z,20.60
2022-09-05T07:39:51.516Z,20.50
2022-09-05T07:42:26.930Z,20.80
2022-09-05T07:45:08.634Z,20.90
2022-09-05T07:56:46.101Z,21.20
2022-09-05T07:56:51.427Z,21.30
2022-09-05T07:59:50.001Z,21.20
2022-09-05T08:02:17.030Z,21.30
2022-09-05T08:04:44.025Z,21.10
2022-09-05T08:11:00.542Z,21.10
2022-09-05T08:13:46.537Z,21.30
2022-09-05T08:16:20.765Z,21.70
2022-09-05T08:22:25.467Z,21.90
2022-09-05T08:25:14.935Z,22.30
2022-09-05T08:31:20.736Z,22.60
2022-09-05T08:33:52.976Z,22.70
2022-09-05T08:36:23.071Z,22.80
2022-09-05T08:38:51.009Z,23.10
2022-09-05T08:41:37.521Z,23.20
2022-09-05T08:46:36.945Z,23.40
2022-09-05T08:50:54.424Z,23.70
2022-09-05T08:53:58.539Z,23.80
2022-09-05T08:56:42.897Z,24.00
2022-09-05T09:03:01.113Z,24.30
2022-09-05T09:06:13.824Z,24.40
2022-09-05T09:12:32.149Z,25.00
2022-09-05T09:15:05.854Z,25.30
2022-09-05T09:17:32.795Z,25.50
2022-09-05T09:20:11.633Z,25.40
2022-09-05T09:26:15.970Z,25.40
2022-09-05T09:28:48.214Z,25.30
2022-09-05T09:31:31.494Z,24.90
2022-09-05T09:37:51.177Z,25.00
2022-09-05T09:40:18.991Z,25.00
2022-09-05T09:42:54.989Z,25.50
2022-09-05T09:49:22.508Z,25.60
2022-09-05T09:52:20.861Z,25.80
2022-09-05T10:01:53.489Z,27.60
2022-09-05T10:10:35.027Z,28.20
2022-09-05T10:10:51.625Z,28.00
2022-09-05T10:18:00.002Z,27.30
2022-09-05T10:21:16.468Z,26.90
2022-09-05T10:24:11.367Z,27.60
2022-09-05T10:30:09.461Z,28.30
2022-09-05T10:35:15.100Z,27.90
2022-09-05T10:36:19.856Z,26.70
2022-09-05T10:41:53.739Z,26.30
2022-09-05T10:44:40.852Z,26.80
2022-09-05T10:50:19.497Z,28.20
2022-09-05T10:53:21.929Z,29.10
2022-09-05T10:56:09.293Z,29.80
2022-09-05T11:02:27.306Z,30.60
2022-09-05T11:04:51.250Z,30.60
2022-09-05T11:07:27.925Z,31.20
2022-09-05T11:10:17.833Z,31.30
2022-09-05T11:13:06.389Z,30.80
2022-09-05T11:16:03.669Z,30.90
2022-09-05T11:18:55.974Z,32.00
2022-09-05T11:22:10.363Z,32.70
2022-09-05T11:24:58.453Z,33.80
2022-09-05T11:27:40.326Z,33.10
2022-09-05T11:30:28.526Z,32.20
2022-09-05T11:39:45.822Z,32.70
2022-09-05T11:39:51.546Z,32.50
2022-09-05T11:40:28.869Z,31.00
2022-09-05T11:43:35.042Z,31.50
2022-09-05T11:46:29.990Z,31.70
2022-09-05T11:49:24.985Z,31.70
2022-09-05T11:52:03.657Z,32.60
2022-09-05T11:54:44.743Z,32.80
2022-09-05T11:57:34.666Z,33.30
2022-09-05T12:00:34.277Z,32.70
2022-09-05T12:03:59.188Z,32.20
2022-09-05T12:07:15.580Z,31.70
2022-09-05T12:10:45.662Z,31.90
2022-09-05T12:13:32.231Z,32.00
2022-09-05T12:16:08.405Z,30.90
2022-09-05T12:18:47.263Z,31.20
2022-09-05T12:21:49.739Z,30.90
2022-09-05T12:25:16.272Z,30.80
2022-09-05T12:27:46.073Z,30.20
2022-09-05T12:30:22.702Z,29.90
2022-09-05T12:36:02.804Z,29.90
2022-09-05T12:40:54.050Z,30.70
2022-09-05T12:41:34.321Z,31.40
2022-09-05T12:42:56.257Z,31.30
2022-09-05T12:45:50.122Z,30.90
2022-09-05T12:48:38.665Z,30.60
2022-09-05T12:51:46.519Z,30.20
2022-09-05T12:54:07.003Z,29.40
2022-09-05T13:00:24.213Z,29.00
2022-09-05T13:02:56.905Z,28.50
2022-09-05T13:03:13.411Z,28.20
2022-09-05T13:06:11.606Z,28.20
2022-09-05T13:08:59.176Z,28.30
2022-09-05T13:14:56.211Z,28.20
2022-09-05T13:15:07.945Z,27.90
2022-09-05T13:17:08.779Z,27.50
2022-09-05T13:19:51.745Z,27.10
2022-09-05T13:22:21.406Z,27.00
2022-09-05T13:24:58.483Z,27.00
2022-09-05T13:27:31.909Z,27.10
2022-09-05T13:30:46.933Z,27.50
2022-09-05T13:38:03.468Z,27.60
2022-09-05T13:38:14.180Z,28.00
2022-09-05T13:39:03.819Z,28.20
2022-09-05T13:41:56.191Z,28.30
2022-09-05T13:44:27.235Z,28.30
2022-09-05T13:47:38.063Z,28.40
2022-09-05T13:50:13.563Z,28.30
2022-09-05T13:52:46.391Z,28.20
2022-09-05T13:55:22.015Z,28.20
2022-09-05T13:58:11.699Z,28.10
2022-09-05T14:00:54.031Z,28.10
2022-09-05T14:03:40.307Z,28.00
2022-09-05T14:06:47.126Z,27.90
2022-09-05T14:09:56.405Z,27.90
2022-09-05T14:12:36.962Z,27.90
2022-09-05T14:15:54.338Z,27.90
2022-09-05T14:19:03.820Z,27.90
2022-09-05T14:21:36.780Z,27.90
2022-09-05T14:24:27.915Z,27.70
2022-09-05T14:27:02.931Z,27.70
2022-09-05T14:29:47.435Z,27.80
2022-09-05T14:37:52.816Z,27.90
2022-09-05T14:37:55.378Z,27.80
2022-09-05T14:38:40.024Z,27.90
2022-09-05T14:41:44.434Z,27.80
2022-09-05T14:44:41.250Z,27.80
2022-09-05T14:47:47.783Z,27.50
2022-09-05T14:50:52.335Z,27.50
2022-09-05T14:57:38.417Z,27.40
2022-09-05T15:02:51.034Z,27.50
2022-09-05T15:02:52.605Z,27.50
2022-09-05T15:05:10.949Z,27.50
2022-09-05T15:07:42.098Z,27.50
2022-09-05T15:12:20.729Z,27.50
2022-09-05T15:13:14.182Z,27.60
2022-09-05T15:16:02.148Z,27.60
2022-09-05T15:18:50.788Z,27.70
2022-09-05T15:21:30.601Z,27.70
2022-09-05T15:24:24.220Z,27.70
2022-09-05T15:27:02.423Z,27.70
2022-09-05T15:29:34.633Z,27.70
2022-09-05T15:32:22.448Z,27.60
2022-09-05T15:34:55.257Z,27.70
2022-09-05T15:37:37.014Z,27.60
2022-09-05T15:40:23.817Z,27.60
2022-09-05T15:42:55.618Z,27.60
2022-09-05T15:45:40.633Z,27.50
2022-09-05T15:48:18.421Z,27.50
2022-09-05T15:50:51.062Z,27.50
2022-09-05T15:53:29.216Z,27.40
2022-09-05T15:56:09.456Z,27.50
2022-09-05T15:58:53.289Z,27.40
2022-09-05T16:01:52.284Z,27.40
2022-09-05T16:10:34.419Z,27.30
2022-09-05T16:10:41.917Z,27.20
2022-09-05T16:10:44.978Z,27.20
2022-09-05T16:13:13.803Z,27.20
2022-09-05T16:20:33.254Z,27.10
2022-09-05T16:23:26.988Z,27.10
2022-09-05T16:23:32.505Z,27.10
2022-09-05T16:24:58.657Z,27.10
2022-09-05T16:27:43.759Z,27.00
2022-09-05T16:30:15.893Z,27.00
2022-09-05T16:32:50.911Z,26.90
2022-09-05T16:35:24.992Z,26.80
2022-09-05T16:37:59.537Z,26.80
2022-09-05T16:40:31.706Z,26.70
2022-09-05T16:43:21.461Z,26.60
2022-09-05T16:46:13.070Z,26.50
2022-09-05T16:48:54.941Z,26.50
2022-09-05T16:51:36.367Z,26.30
2022-09-05T16:54:10.852Z,26.20
2022-09-05T16:56:46.497Z,26.10
2022-09-05T16:59:24.415Z,25.90
2022-09-05T17:02:10.981Z,25.90
2022-09-05T17:05:06.598Z,25.70
2022-09-05T17:08:03.935Z,25.70
2022-09-05T17:10:57.460Z,25.60
2022-09-05T17:13:43.539Z,25.50
2022-09-05T17:16:19.059Z,25.50
2022-09-05T17:18:47.211Z,25.40
2022-09-05T17:21:56.310Z,25.30
2022-09-05T17:29:17.329Z,25.20
2022-09-05T17:29:27.001Z,25.10
2022-09-05T17:42:26.242Z,24.50
2022-09-05T17:45:05.917Z,24.40
2022-09-05T17:47:44.348Z,24.30
2022-09-05T17:50:33.642Z,24.20
2022-09-05T17:53:26.779Z,24.10
2022-09-05T17:55:54.806Z,24.00
2022-09-05T17:58:48.961Z,23.80
2022-09-05T18:01:26.390Z,23.70
2022-09-05T18:03:55.558Z,23.60
2022-09-05T18:06:52.805Z,23.50
2022-09-05T18:09:48.176Z,23.30
2022-09-05T18:15:32.580Z,23.10
2022-09-05T18:18:08.611Z,23.00
2022-09-05T18:21:21.874Z,22.90
2022-09-05T18:23:57.605Z,22.70
2022-09-05T18:26:26.916Z,22.60
2022-09-05T18:28:59.401Z,22.60
2022-09-05T18:31:41.576Z,22.50
2022-09-05T18:34:21.043Z,22.50
2022-09-05T18:36:49.915Z,22.40
2022-09-05T18:39:37.850Z,22.40
2022-09-05T18:42:33.338Z,22.30
2022-09-05T18:45:15.103Z,22.30
2022-09-05T18:47:59.638Z,22.30
2022-09-05T18:50:33.930Z,22.20
2022-09-05T18:53:08.633Z,22.10
2022-09-05T18:56:12.518Z,22.00
2022-09-05T18:58:31.213Z,21.90
2022-09-05T19:01:28.780Z,21.90
2022-09-05T19:03:59.546Z,21.80
2022-09-05T19:06:36.809Z,21.70
2022-09-05T19:09:14.034Z,21.60
2022-09-05T19:12:34.919Z,21.60
2022-09-05T19:14:55.937Z,21.60
2022-09-05T19:17:45.463Z,21.50
2022-09-05T19:20:31.590Z,21.50
2022-09-05T19:23:12.779Z,21.50
2022-09-05T19:25:53.153Z,21.40
2022-09-05T19:36:49.845Z,21.30
2022-09-05T19:36:56.640Z,21.40
2022-09-05T19:36:57.280Z,21.30
2022-09-05T19:44:00.531Z,21.20
2022-09-05T19:47:28.229Z,21.10
2022-09-05T19:47:46.681Z,21.10
2022-09-05T19:50:55.731Z,21.00
2022-09-05T19:53:22.696Z,21.00
2022-09-05T19:55:49.866Z,20.90
2022-09-05T19:58:22.157Z,20.90
2022-09-05T20:01:06.245Z,20.90
2022-09-05T20:03:39.864Z,20.80
2022-09-05T20:06:29.176Z,20.80
2022-09-05T20:09:21.860Z,20.70
2022-09-05T20:11:49.868Z,20.70
2022-09-05T20:14:30.351Z,20.70
2022-09-05T20:17:17.444Z,20.70
2022-09-05T20:19:44.915Z,20.70
2022-09-05T20:22:48.606Z,20.70
2022-09-05T20:25:19.955Z,20.60
2022-09-05T20:28:09.641Z,20.60
2022-09-05T20:30:39.818Z,20.60
2022-09-05T20:33:16.175Z,20.50
2022-09-05T20:40:40.167Z,20.50
2022-09-05T20:43:20.078Z,20.50
2022-09-05T20:43:28.731Z,20.50
2022-09-05T20:44:24.873Z,20.50
2022-09-05T20:51:17.057Z,20.40
2022-09-05T20:54:06.060Z,20.40
2022-09-05T20:54:25.928Z,20.40
2022-09-05T20:55:39.591Z,20.40
2022-09-05T20:58:13.951Z,20.40
2022-09-05T21:01:21.471Z,20.30
2022-09-05T21:03:56.180Z,20.30
2022-09-05T21:06:25.549Z,20.30
2022-09-05T21:08:55.857Z,20.30
2022-09-05T21:11:31.564Z,20.30
2022-09-05T21:14:04.466Z,20.30
2022-09-05T21:16:47.594Z,20.20
2022-09-05T21:19:32.756Z,20.20
2022-09-05T21:22:09.513Z,20.10
2022-09-05T21:24:36.290Z,20.10
2022-09-05T21:27:23.037Z,20.10
2022-09-05T21:29:58.725Z,20.10
2022-09-05T21:32:33.426Z,20.10
2022-09-05T21:35:15.356Z,20.10
2022-09-05T21:37:56.664Z,20.00
2022-09-05T21:40:23.430Z,20.00
2022-09-05T21:47:34.483Z,20.00
2022-09-05T21:47:37.457Z,20.00
2022-09-05T21:48:24.324Z,20.00
2022-09-05T21:50:57.832Z,19.90
2022-09-05T21:58:56.651Z,20.00
2022-09-05T21:59:17.486Z,20.10
2022-09-05T21:59:21.905Z,20.10
2022-09-05T22:02:00.327Z,20.10
2022-09-05T22:04:27.668Z,20.10
2022-09-05T22:06:57.554Z,20.10
2022-09-05T22:09:24.288Z,20.20
2022-09-05T22:11:51.140Z,20.30
2022-09-05T22:14:19.605Z,20.30
2022-09-05T22:16:47.516Z,20.40
2022-09-05T22:19:22.313Z,20.50
2022-09-05T22:21:56.022Z,20.50
2022-09-05T22:24:24.614Z,20.50
2022-09-05T22:27:11.478Z,20.40
2022-09-05T22:29:44.840Z,20.30
2022-09-05T22:32:16.195Z,20.20
2022-09-05T22:34:46.098Z,20.10
2022-09-05T22:37:16.439Z,20.00
2022-09-05T22:39:44.847Z,20.00
2022-09-05T22:42:12.568Z,19.90
2022-09-05T22:44:40.329Z,19.90
2022-09-05T22:47:09.219Z,19.90
2022-09-05T22:49:36.703Z,19.90
2022-09-05T22:52:08.433Z,19.80
2022-09-05T22:54:36.238Z,19.80
2022-09-05T22:57:04.883Z,19.70
2022-09-05T22:59:32.242Z,19.80
2022-09-05T23:01:59.459Z,19.70
2022-09-05T23:04:26.707Z,19.60
2022-09-05T23:06:53.686Z,19.60
2022-09-05T23:09:21.039Z,19.60
2022-09-05T23:11:48.711Z,19.60
2022-09-05T23:14:15.752Z,19.60
2022-09-05T23:16:43.409Z,19.60
2022-09-05T23:19:10.663Z,19.50
2022-09-05T23:21:37.839Z,19.50
2022-09-05T23:24:05.179Z,19.50
2022-09-05T23:26:32.319Z,19.50
2022-09-05T23:28:59.361Z,19.50
2022-09-05T23:31:26.688Z,19.50
2022-09-05T23:33:55.470Z,19.40
2022-09-05T23:36:22.655Z,19.40
2022-09-05T23:38:49.907Z,19.40
2022-09-05T23:41:17.056Z,19.40
2022-09-05T23:43:44.335Z,19.40
2022-09-05T23:46:16.409Z,19.30
2022-09-05T23:48:43.728Z,19.30
2022-09-05T23:51:12.527Z,19.20
2022-09-05T23:53:40.189Z,19.30
2022-09-05T23:56:09.169Z,19.20
2022-09-05T23:58:37.154Z,19.20
